Time;durP1;ratioP1;P1;durP2;ratioP2;P2;SDS_P1;SDS_P2;PMS_P1;PMS_P2;Temp;Humidity;BMP_temperature;BMP_pressure;BME280_temperature;BME280_humidity;BME280_pressure;Samples;Min_cycle;Max_cycle;Signal;HPM_P1;HPM_P2
2022/01/14 00:02:21;;;;;;;;;;;0.80;99.90;;;;;;4961451;28;19933;-76
2022/01/14 00:04:47;;;;;;;;;;;0.80;99.90;;;;;;4969863;28;19979;-77
2022/01/14 00:07:14;;;;;;;;;;;0.80;99.90;;;;;;4980892;28;19924;-76
2022/01/14 00:09:42;;;;;;;;;;;0.70;99.90;;;;;;4971270;28;19931;-76
2022/01/14 00:12:15;;;;;;;;;;;0.60;99.90;;;;;;4967012;28;20021;-76
2022/01/14 00:14:44;;;;;;;;;;;0.60;99.90;;;;;;4969729;28;19927;-77
2022/01/14 00:17:12;;;;;;;;;;;0.50;99.90;;;;;;4985028;28;19932;-76
2022/01/14 00:19:39;;;;;;;;;;;0.50;99.90;;;;;;4974863;28;19973;-76
2022/01/14 00:22:09;;;;;;;;;;;0.50;99.90;;;;;;4973727;28;19978;-77
2022/01/14 00:32:58;;;;;;;;;;;0.40;99.90;;;;;;4969236;28;20285;-75
2022/01/14 00:35:25;;;;;;;;;;;0.40;99.90;;;;;;4970946;28;20029;-75
2022/01/14 00:37:52;;;;;;;;;;;0.40;99.90;;;;;;4969863;28;20029;-74
2022/01/14 00:40:19;;;;;;;;;;;0.40;99.90;;;;;;4970305;28;20025;-76
2022/01/14 00:42:47;;;;;;;;;;;0.40;99.90;;;;;;4961075;28;19935;-76
2022/01/14 00:45:14;;;;;;;;;;;0.40;99.90;;;;;;4976976;28;20020;-76
2022/01/14 00:47:40;;;;;;;;;;;0.30;99.90;;;;;;4976106;28;19932;-77
2022/01/14 00:50:08;;;;;;;;;;;0.40;99.90;;;;;;4976065;28;19932;-76
2022/01/14 00:52:35;;;;;;;;;;;0.30;99.90;;;;;;4974154;28;20385;-76
2022/01/14 00:55:02;;;;;;;;;;;0.30;99.90;;;;;;5009333;28;19997;-76
2022/01/14 00:59:14;;;;;;;;;;;0.30;99.90;;;;;;4972762;28;19961;-75
2022/01/14 01:00:17;;;;;;;;;;;0.30;99.90;;;;;;4960955;28;19926;-76
2022/01/14 01:02:44;;;;;;;;;;;0.20;99.90;;;;;;4988169;28;19926;-75
2022/01/14 01:05:12;;;;;;;;;;;0.30;99.90;;;;;;4978119;28;19977;-76
2022/01/14 01:07:40;;;;;;;;;;;0.20;99.90;;;;;;4992379;28;20389;-76
2022/01/14 01:10:07;;;;;;;;;;;0.10;99.90;;;;;;4973002;28;20420;-76
2022/01/14 01:12:41;;;;;;;;;;;0.00;99.90;;;;;;4968314;28;20032;-75
2022/01/14 01:15:12;;;;;;;;;;;0.00;99.90;;;;;;4957358;28;19927;-76
2022/01/14 01:17:40;;;;;;;;;;;0.00;99.90;;;;;;4973156;28;19935;-75
2022/01/14 01:20:12;;;;;;;;;;;-0.10;99.90;;;;;;4965600;28;19933;-76
2022/01/14 01:22:38;;;;;;;;;;;-0.20;99.90;;;;;;4969519;28;19938;-77
2022/01/14 01:25:05;;;;;;;;;;;-0.20;99.90;;;;;;4970824;28;20380;-77
2022/01/14 01:27:39;;;;;;;;;;;-0.30;99.90;;;;;;4964221;28;20236;-76
2022/01/14 01:30:14;;;;;;;;;;;-0.30;99.90;;;;;;4971625;28;19926;-77
2022/01/14 01:32:46;;;;;;;;;;;-0.40;99.90;;;;;;4969552;28;19930;-77
2022/01/14 01:35:13;;;;;;;;;;;-0.40;99.90;;;;;;4973134;28;20403;-78
2022/01/14 01:37:39;;;;;;;;;;;-0.30;99.90;;;;;;4966136;28;19937;-77
2022/01/14 01:40:07;;;;;;;;;;;-0.40;99.90;;;;;;4970570;28;19926;-77
2022/01/14 01:42:33;;;;;;;;;;;-0.40;99.90;;;;;;4975278;28;19940;-77
2022/01/14 01:45:00;;;;;;;;;;;-0.30;99.90;;;;;;4977050;28;20747;-77
2022/01/14 01:47:27;;;;;;;;;;;-0.30;99.90;;;;;;4999861;28;20021;-77
2022/01/14 01:49:55;;;;;;;;;;;-0.20;99.90;;;;;;4981013;28;19927;-77
2022/01/14 01:52:22;;;;;;;;;;;-0.20;99.90;;;;;;4975088;28;19930;-77
2022/01/14 01:54:48;;;;;;;;;;;-0.20;99.90;;;;;;4977587;28;19926;-77
2022/01/14 01:57:15;;;;;;;;;;;-0.20;99.90;;;;;;4969506;28;19948;-77
2022/01/14 01:59:41;;;;;;;;;;;-0.20;99.90;;;;;;4971634;28;20403;-78
2022/01/14 02:02:08;;;;;;;;;;;-0.10;99.90;;;;;;4971373;28;20044;-77
2022/01/14 02:04:35;;;;;;;;;;;-0.10;99.90;;;;;;4969597;28;19926;-77
2022/01/14 02:07:03;;;;;;;;;;;-0.10;99.90;;;;;;4962956;28;19933;-76
2022/01/14 02:09:30;;;;;;;;;;;-0.20;99.90;;;;;;4967495;28;20308;-77
2022/01/14 02:11:57;;;;;;;;;;;-0.30;99.90;;;;;;4964741;28;19926;-77
2022/01/14 02:17:29;;;;;;;;;;;-0.40;99.90;;;;;;4981120;28;19926;-77
2022/01/14 02:22:10;;;;;;;;;;;-0.40;99.90;;;;;;4964768;28;20003;-77
2022/01/14 02:22:48;;;;;;;;;;;-0.40;99.90;;;;;;4968677;28;19927;-76
2022/01/14 02:25:16;;;;;;;;;;;-0.40;99.90;;;;;;4971330;28;19948;-76
2022/01/14 02:27:43;;;;;;;;;;;-0.40;99.90;;;;;;4970120;28;19930;-76
2022/01/14 02:30:10;;;;;;;;;;;-0.40;99.90;;;;;;4986345;28;20033;-76
2022/01/14 02:32:39;;;;;;;;;;;-0.40;99.90;;;;;;4958952;28;19926;-76
2022/01/14 02:35:09;;;;;;;;;;;-0.30;99.90;;;;;;4970925;28;19934;-77
2022/01/14 02:37:36;;;;;;;;;;;-0.40;99.90;;;;;;4982833;28;19926;-76
2022/01/14 02:40:03;;;;;;;;;;;-0.40;99.90;;;;;;5008467;28;19926;-76
2022/01/14 02:42:30;;;;;;;;;;;-0.40;99.90;;;;;;4965741;28;19973;-76
2022/01/14 02:45:02;;;;;;;;;;;-0.30;99.90;;;;;;4964122;28;19937;-76
2022/01/14 02:47:28;;;;;;;;;;;-0.30;99.90;;;;;;4974187;28;19933;-76
2022/01/14 02:49:55;;;;;;;;;;;-0.40;99.90;;;;;;4965706;28;19936;-77
2022/01/14 02:52:29;;;;;;;;;;;-0.40;99.90;;;;;;4964079;28;19927;-76
2022/01/14 02:55:14;;;;;;;;;;;-0.40;99.90;;;;;;4972058;28;19980;-76
2022/01/14 02:57:42;;;;;;;;;;;-0.50;99.90;;;;;;4968797;28;20445;-76
2022/01/14 03:00:09;;;;;;;;;;;-0.40;99.90;;;;;;4971465;28;19933;-76
2022/01/14 03:02:37;;;;;;;;;;;-0.40;99.90;;;;;;4979741;28;19926;-75
2022/01/14 03:05:04;;;;;;;;;;;-0.30;99.90;;;;;;5046638;28;19933;-76
2022/01/14 03:07:33;;;;;;;;;;;-0.20;99.90;;;;;;4972607;28;20016;-76
2022/01/14 03:10:00;;;;;;;;;;;-0.20;99.90;;;;;;5002979;28;20355;-77
2022/01/14 03:12:27;;;;;;;;;;;-0.10;99.90;;;;;;4972648;28;20025;-76
2022/01/14 03:14:54;;;;;;;;;;;-0.20;99.90;;;;;;4972371;28;20021;-77
2022/01/14 03:17:20;;;;;;;;;;;-0.10;99.90;;;;;;4967581;28;20014;-77
2022/01/14 03:19:48;;;;;;;;;;;-0.20;99.90;;;;;;4972163;28;19926;-77
2022/01/14 03:22:21;;;;;;;;;;;-0.10;99.90;;;;;;4969522;28;19926;-77
2022/01/14 03:27:33;;;;;;;;;;;-0.20;99.90;;;;;;4973089;28;20040;-77
2022/01/14 03:30:00;;;;;;;;;;;-0.20;99.90;;;;;;5027108;28;19930;-77
2022/01/14 03:32:27;;;;;;;;;;;-0.20;99.90;;;;;;4971988;28;20440;-77
2022/01/14 03:34:54;;;;;;;;;;;-0.20;99.90;;;;;;4981958;28;19988;-77
2022/01/14 03:37:20;;;;;;;;;;;-0.20;99.90;;;;;;4981716;28;20374;-77
2022/01/14 03:39:48;;;;;;;;;;;-0.20;99.90;;;;;;4967279;28;20440;-76
2022/01/14 03:42:15;;;;;;;;;;;-0.20;99.90;;;;;;4971282;28;20278;-76
2022/01/14 03:44:42;;;;;;;;;;;-0.20;99.90;;;;;;4970864;28;19932;-76
2022/01/14 03:47:08;;;;;;;;;;;-0.20;99.90;;;;;;4965222;28;19981;-76
2022/01/14 03:49:35;;;;;;;;;;;-0.20;99.90;;;;;;4971447;28;19927;-76
2022/01/14 03:52:02;;;;;;;;;;;-0.20;99.90;;;;;;4969065;28;19926;-75
2022/01/14 03:54:29;;;;;;;;;;;-0.20;99.90;;;;;;4970640;28;20020;-75
2022/01/14 03:56:57;;;;;;;;;;;-0.10;99.90;;;;;;4969364;28;20400;-75
2022/01/14 03:59:24;;;;;;;;;;;-0.20;99.90;;;;;;5025431;28;20406;-75
2022/01/14 04:01:51;;;;;;;;;;;-0.10;99.90;;;;;;4972322;28;19930;-75
2022/01/14 04:04:17;;;;;;;;;;;0.00;99.90;;;;;;4970990;28;19926;-75
2022/01/14 04:06:44;;;;;;;;;;;0.10;99.90;;;;;;4966407;28;19927;-75
2022/01/14 04:09:10;;;;;;;;;;;0.20;99.90;;;;;;4971497;28;20013;-76
2022/01/14 04:11:38;;;;;;;;;;;0.30;99.90;;;;;;4975913;28;19996;-76
2022/01/14 04:15:37;;;;;;;;;;;0.40;99.90;;;;;;4971599;28;20029;-76
2022/01/14 04:17:06;;;;;;;;;;;0.60;99.90;;;;;;4977466;28;20459;-77
2022/01/14 04:19:32;;;;;;;;;;;0.60;99.90;;;;;;4968743;28;20301;-77
2022/01/14 04:21:59;;;;;;;;;;;0.80;99.90;;;;;;4973423;28;19926;-77
2022/01/14 04:24:25;;;;;;;;;;;0.80;99.90;;;;;;4972045;28;19925;-76
2022/01/14 04:26:52;;;;;;;;;;;0.80;99.90;;;;;;4977741;28;19926;-77
2022/01/14 04:29:20;;;;;;;;;;;0.90;99.90;;;;;;4970765;28;20009;-77
2022/01/14 04:31:47;;;;;;;;;;;0.90;99.90;;;;;;4971977;28;20385;-77
2022/01/14 04:34:15;;;;;;;;;;;1.00;99.90;;;;;;4999936;28;20454;-78
2022/01/14 04:36:42;;;;;;;;;;;1.10;99.90;;;;;;5013008;28;19927;-77
2022/01/14 04:39:09;;;;;;;;;;;1.00;99.90;;;;;;4972747;28;19926;-77
2022/01/14 04:41:35;;;;;;;;;;;1.10;99.90;;;;;;4963096;28;20018;-77
2022/01/14 04:44:02;;;;;;;;;;;1.10;99.90;;;;;;4965190;28;19930;-78
2022/01/14 04:47:01;;;;;;;;;;;1.00;99.90;;;;;;4967071;28;20017;-77
2022/01/14 04:49:28;;;;;;;;;;;1.00;99.90;;;;;;4967323;28;19935;-77
2022/01/14 04:51:56;;;;;;;;;;;1.00;99.90;;;;;;4972203;28;19926;-77
2022/01/14 04:54:23;;;;;;;;;;;1.00;99.90;;;;;;4973308;28;19933;-77
2022/01/14 04:56:50;;;;;;;;;;;1.00;99.90;;;;;;4973483;28;20325;-77
2022/01/14 04:59:17;;;;;;;;;;;1.00;99.90;;;;;;4974427;28;19926;-78
2022/01/14 05:01:45;;;;;;;;;;;0.90;99.90;;;;;;4974993;28;19965;-77
2022/01/14 05:04:12;;;;;;;;;;;0.90;99.90;;;;;;5004457;28;19932;-76
2022/01/14 05:06:40;;;;;;;;;;;1.00;99.90;;;;;;4969348;28;19969;-76
2022/01/14 05:09:17;;;;;;;;;;;1.00;99.90;;;;;;4970638;28;19926;-76
2022/01/14 05:11:52;;;;;;;;;;;1.10;99.90;;;;;;4976302;28;19983;-76
2022/01/14 05:14:18;;;;;;;;;;;1.20;99.90;;;;;;4974692;28;19926;-76
2022/01/14 05:16:46;;;;;;;;;;;1.20;99.90;;;;;;4973395;28;20358;-77
2022/01/14 05:19:13;;;;;;;;;;;1.20;99.90;;;;;;4973858;28;19927;-76
2022/01/14 05:21:40;;;;;;;;;;;1.20;99.90;;;;;;4965089;28;20006;-76
2022/01/14 05:24:06;;;;;;;;;;;1.20;99.90;;;;;;4971957;28;19930;-76
2022/01/14 05:26:33;;;;;;;;;;;1.20;99.90;;;;;;4970880;28;19926;-76
2022/01/14 05:29:00;;;;;;;;;;;1.20;99.90;;;;;;4971036;28;19988;-76
2022/01/14 05:31:41;;;;;;;;;;;1.20;99.90;;;;;;4968717;28;19933;-76
2022/01/14 05:34:09;;;;;;;;;;;1.20;99.90;;;;;;4973694;28;20285;-76
2022/01/14 05:36:38;;;;;;;;;;;1.20;99.90;;;;;;4967524;28;20218;-76
2022/01/14 05:39:05;;;;;;;;;;;1.30;99.90;;;;;;4971954;28;20024;-76
2022/01/14 05:41:31;;;;;;;;;;;1.30;99.90;;;;;;4981300;28;19930;-75
2022/01/14 05:43:58;;;;;;;;;;;1.40;99.90;;;;;;4970686;28;19933;-76
2022/01/14 05:46:25;;;;;;;;;;;1.40;99.90;;;;;;4971191;28;19926;-76
2022/01/14 05:48:51;;;;;;;;;;;1.40;99.90;;;;;;4970209;28;20381;-75
2022/01/14 05:51:19;;;;;;;;;;;1.30;99.90;;;;;;4967557;28;19934;-76
2022/01/14 05:53:46;;;;;;;;;;;1.30;99.90;;;;;;4968450;28;19926;-76
2022/01/14 05:56:13;;;;;;;;;;;1.20;99.90;;;;;;4970813;28;20283;-76
2022/01/14 05:58:39;;;;;;;;;;;1.10;99.90;;;;;;4971791;28;20033;-76
2022/01/14 06:01:06;;;;;;;;;;;1.00;99.90;;;;;;4968327;28;20284;-76
2022/01/14 06:03:33;;;;;;;;;;;1.00;99.90;;;;;;4971084;28;20419;-76
2022/01/14 06:05:59;;;;;;;;;;;0.90;99.90;;;;;;4971263;28;19932;-76
2022/01/14 06:08:27;;;;;;;;;;;0.80;99.90;;;;;;4969163;28;19987;-76
2022/01/14 06:10:54;;;;;;;;;;;0.70;99.90;;;;;;4968786;28;19926;-76
2022/01/14 06:13:20;;;;;;;;;;;0.60;99.90;;;;;;4972376;28;20021;-76
2022/01/14 06:15:47;;;;;;;;;;;0.50;99.90;;;;;;4970388;28;19926;-76
2022/01/14 06:18:14;;;;;;;;;;;0.40;99.90;;;;;;4971410;28;19926;-76
2022/01/14 06:20:40;;;;;;;;;;;0.40;99.90;;;;;;4975085;28;19932;-75
2022/01/14 06:23:07;;;;;;;;;;;0.30;99.90;;;;;;4965801;28;19926;-75
2022/01/14 06:25:35;;;;;;;;;;;0.40;99.90;;;;;;4961647;28;19973;-76
2022/01/14 06:28:02;;;;;;;;;;;0.40;99.90;;;;;;4966581;28;19931;-76
2022/01/14 06:30:29;;;;;;;;;;;0.40;99.90;;;;;;4955996;28;20293;-76
2022/01/14 06:32:56;;;;;;;;;;;0.30;99.90;;;;;;4967397;28;19927;-76
2022/01/14 06:35:23;;;;;;;;;;;0.40;99.90;;;;;;4962642;28;20304;-76
2022/01/14 06:37:50;;;;;;;;;;;0.30;99.90;;;;;;4962044;28;19928;-77
2022/01/14 06:40:17;;;;;;;;;;;0.40;99.90;;;;;;4962863;28;20378;-76
2022/01/14 06:42:45;;;;;;;;;;;0.50;99.90;;;;;;4960137;28;20013;-75
2022/01/14 06:45:12;;;;;;;;;;;0.50;99.90;;;;;;4962302;28;19931;-76
2022/01/14 06:47:38;;;;;;;;;;;0.50;99.90;;;;;;4968873;28;19932;-76
2022/01/14 06:50:05;;;;;;;;;;;0.50;99.90;;;;;;4974582;28;19926;-76
2022/01/14 06:52:32;;;;;;;;;;;0.60;99.90;;;;;;4974518;28;19926;-77
2022/01/14 06:54:59;;;;;;;;;;;0.60;99.90;;;;;;4970927;28;20025;-76
2022/01/14 06:57:26;;;;;;;;;;;0.60;99.90;;;;;;4961962;28;20352;-76
2022/01/14 06:59:54;;;;;;;;;;;0.60;99.90;;;;;;4974877;28;19970;-77
2022/01/14 07:02:20;;;;;;;;;;;0.60;99.90;;;;;;4964445;28;19926;-76
2022/01/14 07:04:47;;;;;;;;;;;0.60;99.90;;;;;;4974155;28;19949;-77
2022/01/14 07:07:14;;;;;;;;;;;0.50;99.90;;;;;;4958006;28;19933;-76
2022/01/14 07:09:56;;;;;;;;;;;0.60;99.90;;;;;;4974371;28;19933;-77
2022/01/14 07:12:23;;;;;;;;;;;0.60;99.90;;;;;;4965507;28;19934;-76
2022/01/14 07:14:50;;;;;;;;;;;0.60;99.90;;;;;;4961768;28;19933;-76
2022/01/14 07:17:18;;;;;;;;;;;0.60;99.90;;;;;;4962871;28;20385;-75
2022/01/14 07:19:46;;;;;;;;;;;0.60;99.90;;;;;;4963791;28;19932;-74
2022/01/14 07:22:13;;;;;;;;;;;0.60;99.90;;;;;;4963481;28;19931;-71
2022/01/14 07:24:40;;;;;;;;;;;0.60;99.90;;;;;;4964534;28;19981;-74
2022/01/14 07:27:06;;;;;;;;;;;0.60;99.90;;;;;;4967265;28;20013;-73
2022/01/14 07:29:33;;;;;;;;;;;0.60;99.90;;;;;;4959894;28;19931;-75
2022/01/14 07:32:00;;;;;;;;;;;0.60;99.90;;;;;;4961005;28;20013;-72
2022/01/14 07:34:28;;;;;;;;;;;0.60;99.90;;;;;;4955773;28;19930;-74
2022/01/14 07:36:54;;;;;;;;;;;0.70;99.90;;;;;;4987810;28;20365;-73
2022/01/14 07:39:23;;;;;;;;;;;0.70;99.90;;;;;;4964432;28;19976;-72
2022/01/14 07:41:50;;;;;;;;;;;0.60;99.90;;;;;;4964862;28;19926;-74
2022/01/14 07:44:17;;;;;;;;;;;0.60;99.90;;;;;;4968224;28;19926;-73
2022/01/14 07:46:43;;;;;;;;;;;0.60;99.90;;;;;;4961842;28;19926;-74
2022/01/14 07:49:10;;;;;;;;;;;0.70;99.90;;;;;;4963903;28;20021;-74
2022/01/14 07:51:39;;;;;;;;;;;0.80;99.90;;;;;;4950908;28;19966;-74
2022/01/14 07:54:05;;;;;;;;;;;0.90;99.90;;;;;;4968235;28;19933;-74
2022/01/14 07:56:33;;;;;;;;;;;0.90;99.90;;;;;;4964222;28;19949;-70
2022/01/14 07:59:00;;;;;;;;;;;0.90;99.90;;;;;;4955869;28;19933;-74
2022/01/14 08:01:27;;;;;;;;;;;1.00;99.90;;;;;;4960953;28;19926;-74
2022/01/14 08:03:54;;;;;;;;;;;1.00;99.90;;;;;;4955850;28;19930;-75
2022/01/14 08:06:22;;;;;;;;;;;1.00;99.90;;;;;;4964143;28;19937;-74
2022/01/14 08:08:50;;;;;;;;;;;1.00;99.90;;;;;;4967169;28;19930;-74
2022/01/14 08:11:17;;;;;;;;;;;1.00;99.90;;;;;;4957820;28;19926;-74
2022/01/14 08:13:44;;;;;;;;;;;1.10;99.90;;;;;;4964836;28;19933;-74
2022/01/14 08:16:10;;;;;;;;;;;1.10;99.90;;;;;;4958675;28;19976;-74
2022/01/14 08:18:37;;;;;;;;;;;1.10;99.90;;;;;;4955230;28;19938;-74
2022/01/14 08:21:04;;;;;;;;;;;1.20;99.90;;;;;;4958058;28;19926;-72
2022/01/14 08:23:31;;;;;;;;;;;1.20;99.90;;;;;;4962583;28;19926;-74
2022/01/14 08:26:01;;;;;;;;;;;1.30;99.90;;;;;;4969495;28;20017;-74
2022/01/14 08:28:29;;;;;;;;;;;1.30;99.90;;;;;;4959179;28;19927;-74
2022/01/14 08:30:56;;;;;;;;;;;1.40;99.90;;;;;;4955474;28;20420;-74
2022/01/14 08:33:23;;;;;;;;;;;1.40;99.90;;;;;;4960666;28;19933;-74
2022/01/14 08:35:49;;;;;;;;;;;1.40;99.90;;;;;;4966168;28;19926;-74
2022/01/14 08:38:16;;;;;;;;;;;1.40;99.90;;;;;;4965620;28;19926;-75
2022/01/14 08:40:43;;;;;;;;;;;1.30;99.90;;;;;;4953704;28;19938;-74
2022/01/14 08:43:11;;;;;;;;;;;1.40;99.90;;;;;;4967994;28;19934;-74
2022/01/14 08:45:38;;;;;;;;;;;1.30;99.90;;;;;;4959829;28;20460;-74
2022/01/14 08:48:05;;;;;;;;;;;1.40;99.90;;;;;;4959903;28;19972;-74
2022/01/14 08:50:34;;;;;;;;;;;1.40;99.90;;;;;;4961437;28;19926;-74
2022/01/14 08:53:00;;;;;;;;;;;1.40;99.90;;;;;;4963654;28;19926;-74
2022/01/14 08:55:27;;;;;;;;;;;1.40;99.90;;;;;;4967893;28;19981;-74
2022/01/14 08:57:55;;;;;;;;;;;1.40;99.90;;;;;;4961760;28;19926;-74
2022/01/14 09:00:23;;;;;;;;;;;1.50;99.90;;;;;;4964027;28;20399;-75
2022/01/14 09:02:50;;;;;;;;;;;1.40;99.90;;;;;;4956494;28;20025;-74
2022/01/14 09:05:17;;;;;;;;;;;1.40;99.90;;;;;;4978586;28;20013;-76
2022/01/14 09:07:43;;;;;;;;;;;1.40;99.90;;;;;;4965875;28;20343;-76
2022/01/14 09:10:10;;;;;;;;;;;1.40;99.90;;;;;;4962180;28;19933;-75
2022/01/14 09:12:37;;;;;;;;;;;1.40;99.90;;;;;;4968222;28;20028;-75
2022/01/14 09:15:04;;;;;;;;;;;1.40;99.90;;;;;;4964443;28;20539;-76
2022/01/14 09:17:32;;;;;;;;;;;1.60;99.90;;;;;;4965268;28;20352;-75
2022/01/14 09:20:01;;;;;;;;;;;1.60;99.90;;;;;;4960133;28;20289;-76
2022/01/14 09:22:30;;;;;;;;;;;1.70;99.90;;;;;;4963679;28;19933;-75
2022/01/14 09:24:59;;;;;;;;;;;1.80;99.90;;;;;;4962461;28;19988;-76
2022/01/14 09:27:26;;;;;;;;;;;1.90;99.90;;;;;;4966383;28;19973;-76
2022/01/14 09:29:54;;;;;;;;;;;2.00;99.90;;;;;;4963259;28;20021;-75
2022/01/14 09:32:21;;;;;;;;;;;2.00;99.90;;;;;;4960111;28;19933;-76
2022/01/14 09:34:49;;;;;;;;;;;2.10;99.90;;;;;;4959035;28;20020;-76
2022/01/14 09:37:15;;;;;;;;;;;2.20;99.90;;;;;;4962481;28;20292;-76
2022/01/14 09:39:43;;;;;;;;;;;2.30;99.90;;;;;;4968500;28;20422;-75
2022/01/14 09:42:10;;;;;;;;;;;2.40;99.90;;;;;;4964810;28;20019;-74
2022/01/14 09:44:36;;;;;;;;;;;2.30;99.90;;;;;;4958052;28;19927;-74
2022/01/14 09:47:03;;;;;;;;;;;2.30;99.90;;;;;;4959502;28;20666;-76
2022/01/14 09:49:30;;;;;;;;;;;2.30;99.90;;;;;;4965213;28;20388;-75
2022/01/14 09:51:58;;;;;;;;;;;2.30;99.90;;;;;;4964433;28;19926;-73
2022/01/14 09:54:25;;;;;;;;;;;2.30;99.90;;;;;;4967238;28;19926;-74
2022/01/14 09:56:51;;;;;;;;;;;2.30;99.90;;;;;;4959691;28;19992;-75
2022/01/14 09:59:18;;;;;;;;;;;2.50;99.90;;;;;;4962971;28;19937;-74
2022/01/14 10:01:46;;;;;;;;;;;2.70;99.90;;;;;;4961215;28;19926;-73
2022/01/14 10:04:14;;;;;;;;;;;2.50;99.90;;;;;;4967441;28;19991;-73
2022/01/14 10:06:42;;;;;;;;;;;2.50;99.90;;;;;;4967044;28;19937;-73
2022/01/14 10:09:11;;;;;;;;;;;2.50;99.90;;;;;;4970654;28;19926;-76
2022/01/14 10:11:39;;;;;;;;;;;2.50;99.90;;;;;;4964182;28;19933;-75
2022/01/14 10:14:06;;;;;;;;;;;2.60;99.90;;;;;;4964938;28;19933;-77
2022/01/14 10:16:33;;;;;;;;;;;2.70;99.90;;;;;;4962664;28;19930;-75
2022/01/14 10:19:00;;;;;;;;;;;2.80;99.90;;;;;;4962362;28;20030;-75
2022/01/14 10:21:31;;;;;;;;;;;3.00;99.90;;;;;;4957674;28;20008;-74
2022/01/14 10:23:59;;;;;;;;;;;3.10;99.90;;;;;;4958620;28;19926;-75
2022/01/14 10:26:30;;;;;;;;;;;3.30;99.90;;;;;;4961693;28;19935;-75
2022/01/14 10:29:00;;;;;;;;;;;3.40;99.90;;;;;;4965609;28;19982;-73
2022/01/14 10:31:31;;;;;;;;;;;3.60;99.90;;;;;;4958824;28;19926;-76
2022/01/14 10:34:06;;;;;;;;;;;3.80;99.90;;;;;;4962240;28;20025;-76
2022/01/14 10:36:33;;;;;;;;;;;3.90;99.90;;;;;;4970511;28;20029;-75
2022/01/14 10:39:00;;;;;;;;;;;3.90;99.90;;;;;;4963327;28;20002;-76
2022/01/14 10:41:31;;;;;;;;;;;4.00;99.90;;;;;;4964079;28;20298;-80
2022/01/14 10:43:59;;;;;;;;;;;4.00;99.90;;;;;;4963465;28;19933;-78
2022/01/14 10:46:28;;;;;;;;;;;4.10;99.90;;;;;;4969350;28;19985;-79
2022/01/14 10:48:55;;;;;;;;;;;4.20;99.90;;;;;;4969774;28;20393;-76
2022/01/14 10:51:22;;;;;;;;;;;4.30;99.90;;;;;;4967923;28;20369;-76
2022/01/14 10:53:50;;;;;;;;;;;4.40;99.90;;;;;;4960642;28;20424;-77
2022/01/14 10:56:19;;;;;;;;;;;4.50;99.90;;;;;;4963512;28;19933;-76
2022/01/14 10:58:49;;;;;;;;;;;4.50;99.90;;;;;;4964998;28;19934;-77
2022/01/14 11:01:18;;;;;;;;;;;4.60;99.90;;;;;;4963715;28;19933;-76
2022/01/14 11:03:46;;;;;;;;;;;4.70;99.90;;;;;;4961531;28;20296;-75
2022/01/14 11:06:16;;;;;;;;;;;4.80;99.90;;;;;;4965324;28;19972;-76
2022/01/14 11:08:43;;;;;;;;;;;4.90;99.90;;;;;;4961452;28;20009;-75
2022/01/14 11:11:09;;;;;;;;;;;5.00;99.90;;;;;;4965706;28;19933;-75
2022/01/14 11:13:36;;;;;;;;;;;5.00;99.90;;;;;;4961113;28;19926;-76
2022/01/14 11:16:05;;;;;;;;;;;5.00;99.90;;;;;;4961203;28;19926;-75
2022/01/14 11:18:31;;;;;;;;;;;5.20;99.90;;;;;;4965255;28;20593;-76
2022/01/14 11:23:42;;;;;;;;;;;5.30;99.90;;;;;;4968637;28;20019;-77
2022/01/14 11:26:11;;;;;;;;;;;5.30;99.90;;;;;;4966748;28;19962;-77
2022/01/14 11:28:40;;;;;;;;;;;5.40;99.90;;;;;;4966550;28;19958;-76
2022/01/14 11:31:28;;;;;;;;;;;5.50;99.90;;;;;;4963357;28;19927;-77
2022/01/14 11:33:56;;;;;;;;;;;5.50;99.90;;;;;;4962596;28;19932;-76
2022/01/14 11:36:22;;;;;;;;;;;5.60;99.90;;;;;;4965900;28;19980;-76
2022/01/14 11:38:49;;;;;;;;;;;5.60;99.90;;;;;;4972385;28;19957;-75
2022/01/14 11:41:18;;;;;;;;;;;5.70;99.90;;;;;;4959122;28;20009;-78
2022/01/14 11:43:45;;;;;;;;;;;5.80;99.90;;;;;;4964371;28;20326;-78
2022/01/14 11:46:13;;;;;;;;;;;5.90;99.90;;;;;;4974680;28;19952;-78
2022/01/14 11:48:46;;;;;;;;;;;5.90;99.90;;;;;;4970135;28;19937;-78
2022/01/14 11:51:14;;;;;;;;;;;5.90;99.90;;;;;;4961881;28;19931;-79
2022/01/14 11:53:43;;;;;;;;;;;5.90;99.90;;;;;;4972079;28;20397;-77
2022/01/14 11:56:28;;;;;;;;;;;5.90;99.90;;;;;;4971347;28;20288;-76
2022/01/14 11:58:55;;;;;;;;;;;5.70;99.90;;;;;;4962058;28;19930;-76
2022/01/14 12:01:34;;;;;;;;;;;5.80;99.90;;;;;;4961687;28;20017;-76
2022/01/14 12:04:02;;;;;;;;;;;5.90;99.90;;;;;;4957253;28;20311;-77
2022/01/14 12:06:44;;;;;;;;;;;5.80;99.90;;;;;;4974579;28;19926;-77
2022/01/14 12:09:10;;;;;;;;;;;5.80;99.90;;;;;;4966784;28;20412;-76
2022/01/14 12:11:38;;;;;;;;;;;5.90;99.90;;;;;;4965693;28;20465;-76
2022/01/14 12:14:06;;;;;;;;;;;6.00;99.90;;;;;;4958257;28;19960;-76
2022/01/14 12:17:00;;;;;;;;;;;5.90;99.90;;;;;;4972356;28;19979;-77
2022/01/14 12:19:28;;;;;;;;;;;6.00;99.90;;;;;;4965528;28;19926;-76
2022/01/14 12:22:02;;;;;;;;;;;6.00;99.90;;;;;;4963001;28;20033;-76
2022/01/14 12:24:36;;;;;;;;;;;6.20;99.90;;;;;;4962639;28;20406;-77
2022/01/14 12:27:21;;;;;;;;;;;6.20;99.90;;;;;;4962590;28;20041;-77
2022/01/14 12:29:48;;;;;;;;;;;6.30;99.90;;;;;;4956783;28;19926;-76
2022/01/14 12:32:16;;;;;;;;;;;6.40;99.90;;;;;;4965184;28;20018;-74
2022/01/14 12:34:59;;;;;;;;;;;6.30;99.90;;;;;;4959970;28;19944;-75
2022/01/14 12:37:26;;;;;;;;;;;6.30;99.90;;;;;;4964084;28;20000;-75
2022/01/14 12:39:54;;;;;;;;;;;6.40;99.90;;;;;;4963100;28;19937;-76
2022/01/14 12:42:21;;;;;;;;;;;6.40;99.90;;;;;;4964135;28;20024;-76
2022/01/14 12:44:51;;;;;;;;;;;6.40;99.90;;;;;;4959111;28;20029;-78
2022/01/14 12:47:23;;;;;;;;;;;6.40;99.90;;;;;;4966189;28;20308;-77
2022/01/14 12:49:51;;;;;;;;;;;6.50;99.90;;;;;;4967958;28;19933;-76
2022/01/14 12:52:29;;;;;;;;;;;6.60;99.90;;;;;;4965113;28;19927;-77
2022/01/14 12:54:56;;;;;;;;;;;6.50;99.90;;;;;;4963607;28;19934;-75
2022/01/14 12:57:24;;;;;;;;;;;6.50;99.90;;;;;;4957036;28;20013;-76
2022/01/14 12:59:52;;;;;;;;;;;6.60;99.90;;;;;;4961192;28;20578;-77
2022/01/14 13:02:20;;;;;;;;;;;6.60;99.90;;;;;;4966428;28;20464;-76
2022/01/14 13:04:58;;;;;;;;;;;6.60;99.90;;;;;;4964755;28;19926;-76
2022/01/14 13:07:29;;;;;;;;;;;6.70;99.90;;;;;;4969920;28;19930;-76
2022/01/14 13:09:56;;;;;;;;;;;6.70;99.90;;;;;;4964588;28;19926;-76
2022/01/14 13:12:27;;;;;;;;;;;6.60;99.90;;;;;;4962896;28;19926;-76
2022/01/14 13:14:57;;;;;;;;;;;6.50;99.90;;;;;;4959527;28;19926;-75
2022/01/14 13:17:26;;;;;;;;;;;6.40;99.90;;;;;;4953615;28;20622;-76
2022/01/14 13:19:57;;;;;;;;;;;6.50;99.90;;;;;;4963537;28;20337;-76
2022/01/14 13:22:23;;;;;;;;;;;6.40;99.90;;;;;;4969215;28;19933;-76
2022/01/14 13:24:52;;;;;;;;;;;6.30;99.90;;;;;;4963917;28;19926;-76
2022/01/14 13:27:21;;;;;;;;;;;6.20;99.90;;;;;;4965766;28;20009;-76
2022/01/14 13:29:48;;;;;;;;;;;6.30;99.90;;;;;;4962920;28;19933;-75
2022/01/14 13:32:17;;;;;;;;;;;6.10;99.90;;;;;;4967833;28;19949;-77
2022/01/14 13:34:45;;;;;;;;;;;6.00;99.90;;;;;;4958348;28;20005;-76
2022/01/14 13:37:11;;;;;;;;;;;5.90;99.90;;;;;;4957267;28;19926;-76
2022/01/14 13:39:38;;;;;;;;;;;6.00;99.90;;;;;;4955389;28;20009;-76
2022/01/14 13:42:20;;;;;;;;;;;5.90;99.90;;;;;;4960834;28;19930;-77
2022/01/14 13:44:47;;;;;;;;;;;6.00;99.90;;;;;;4967139;28;20025;-76
2022/01/14 13:47:19;;;;;;;;;;;5.90;99.90;;;;;;4958853;28;19930;-77
2022/01/14 13:49:46;;;;;;;;;;;5.80;99.90;;;;;;4964991;28;20385;-72
2022/01/14 13:52:14;;;;;;;;;;;5.80;99.90;;;;;;4961718;28;19958;-75
2022/01/14 13:54:41;;;;;;;;;;;5.90;99.90;;;;;;4968833;28;20281;-72
2022/01/14 13:57:10;;;;;;;;;;;5.90;99.90;;;;;;4964203;28;19927;-72
2022/01/14 13:59:37;;;;;;;;;;;5.80;99.90;;;;;;4956193;28;20020;-72
2022/01/14 14:02:06;;;;;;;;;;;5.80;99.90;;;;;;4959912;28;20317;-74
2022/01/14 14:04:40;;;;;;;;;;;5.80;99.90;;;;;;4949926;28;20362;-75
2022/01/14 14:07:09;;;;;;;;;;;6.00;99.90;;;;;;4960554;28;19934;-73
2022/01/14 14:09:43;;;;;;;;;;;6.10;99.90;;;;;;4956890;28;19995;-74
2022/01/14 14:12:37;;;;;;;;;;;6.00;99.90;;;;;;4961818;28;19948;-73
2022/01/14 14:18:16;;;;;;;;;;;6.00;99.90;;;;;;4963858;28;19993;-72
2022/01/14 14:20:43;;;;;;;;;;;6.00;99.90;;;;;;4971820;28;19978;-73
2022/01/14 14:23:17;;;;;;;;;;;6.00;99.90;;;;;;4968290;28;19969;-73
2022/01/14 14:25:44;;;;;;;;;;;5.90;99.90;;;;;;4981127;28;20021;-75
2022/01/14 14:28:12;;;;;;;;;;;5.80;99.90;;;;;;4982218;28;19927;-77
2022/01/14 14:30:41;;;;;;;;;;;5.80;99.90;;;;;;4979108;28;19933;-76
2022/01/14 14:33:08;;;;;;;;;;;5.80;99.90;;;;;;4968290;28;20021;-76
2022/01/14 14:35:36;;;;;;;;;;;5.80;99.90;;;;;;4961956;28;20407;-77
2022/01/14 14:38:03;;;;;;;;;;;5.70;99.90;;;;;;4966390;28;20021;-76
2022/01/14 14:40:32;;;;;;;;;;;5.60;99.90;;;;;;4972712;28;20456;-81
2022/01/14 14:43:00;;;;;;;;;;;5.40;99.90;;;;;;4962551;28;19964;-77
2022/01/14 14:45:28;;;;;;;;;;;5.60;99.90;;;;;;4968766;28;19933;-78
2022/01/14 14:47:55;;;;;;;;;;;5.50;99.90;;;;;;4975340;28;19934;-76
2022/01/14 14:50:22;;;;;;;;;;;5.40;99.90;;;;;;4979088;28;20334;-76
2022/01/14 14:52:50;;;;;;;;;;;5.40;99.90;;;;;;4990933;28;20428;-76
2022/01/14 14:55:18;;;;;;;;;;;5.40;99.90;;;;;;4969062;28;20483;-76
2022/01/14 14:57:45;;;;;;;;;;;5.30;99.90;;;;;;4957899;28;19940;-75